createdAt,value
2023-01-01T00:00:19.180Z,5.75
2023-01-01T00:02:48.080Z,3.97
2023-01-01T00:05:14.913Z,4.10
2023-01-01T00:07:42.119Z,4.00
2023-01-01T00:10:29.212Z,4.07
2023-01-01T00:13:00.112Z,3.90
2023-01-01T00:15:28.094Z,4.30
2023-01-01T00:17:55.318Z,3.87
2023-01-01T00:20:22.680Z,4.10
2023-01-01T00:22:57.043Z,4.73
2023-01-01T00:25:25.092Z,3.80
2023-01-01T00:27:52.115Z,4.72
2023-01-01T00:30:19.581Z,4.37
2023-01-01T00:32:54.562Z,4.43
2023-01-01T00:35:24.668Z,4.27
2023-01-01T00:37:51.594Z,4.17
2023-01-01T00:40:18.859Z,4.10
2023-01-01T00:42:45.807Z,3.93
2023-01-01T00:45:18.745Z,4.97
2023-01-01T00:47:48.239Z,4.37
2023-01-01T00:50:15.202Z,4.43
2023-01-01T00:52:42.097Z,5.07
2023-01-01T00:55:09.426Z,5.10
2023-01-01T00:57:36.313Z,4.33
2023-01-01T01:00:05.359Z,4.67
2023-01-01T01:02:32.418Z,4.97
2023-01-01T01:04:59.375Z,4.70
2023-01-01T01:07:26.204Z,5.27
2023-01-01T01:09:53.055Z,4.73
2023-01-01T01:12:19.861Z,4.23
2023-01-01T01:14:47.332Z,4.40
2023-01-01T01:17:14.225Z,4.53
2023-01-01T01:19:41.028Z,4.93
2023-01-01T01:22:07.842Z,4.35
2023-01-01T01:24:34.634Z,4.65
2023-01-01T01:27:01.581Z,4.90
2023-01-01T01:29:28.440Z,4.47
2023-01-01T01:31:55.254Z,5.00
2023-01-01T01:34:27.522Z,4.43
2023-01-01T01:36:55.415Z,5.43
2023-01-01T01:39:22.562Z,4.70
2023-01-01T01:41:49.764Z,4.87
2023-01-01T01:44:47.625Z,4.77
2023-01-01T01:47:29.615Z,4.88
2023-01-01T01:50:03.192Z,5.90
2023-01-01T01:52:32.918Z,5.60
2023-01-01T01:55:02.253Z,4.78
2023-01-01T01:57:29.842Z,5.43
2023-01-01T01:59:58.391Z,4.97
2023-01-01T02:02:51.053Z,5.17
2023-01-01T02:05:19.589Z,4.80
2023-01-01T02:07:46.874Z,4.82
2023-01-01T02:10:13.795Z,5.40
2023-01-01T02:12:40.704Z,4.82
2023-01-01T02:15:09.472Z,3.97
2023-01-01T02:18:13.490Z,5.03
2023-01-01T02:20:49.323Z,4.63
2023-01-01T02:23:34.445Z,4.43
2023-01-01T02:26:38.799Z,5.68
2023-01-01T02:29:10.516Z,4.20
2023-01-01T02:31:44.524Z,4.50
2023-01-01T02:34:15.447Z,3.97
2023-01-01T02:36:48.646Z,4.07
2023-01-01T02:39:16.742Z,3.47
2023-01-01T02:41:46.975Z,4.30
2023-01-01T02:44:14.120Z,4.10
2023-01-01T02:46:41.404Z,3.72
2023-01-01T02:49:10.817Z,4.35
2023-01-01T02:51:58.916Z,3.80
2023-01-01T02:54:41.000Z,4.20
2023-01-01T02:57:33.504Z,3.87
2023-01-01T03:00:25.208Z,4.00
2023-01-01T03:03:17.997Z,4.57
2023-01-01T03:06:12.373Z,4.03
2023-01-01T03:09:13.160Z,4.43
2023-01-01T03:12:25.457Z,3.97
2023-01-01T03:15:06.430Z,3.95
2023-01-01T03:17:38.327Z,3.97
2023-01-01T03:20:12.099Z,3.87
2023-01-01T03:25:12.138Z,3.73
2023-01-01T03:27:50.195Z,4.18
2023-01-01T03:30:23.052Z,4.60
2023-01-01T03:33:07.982Z,4.20
2023-01-01T03:35:47.267Z,4.03
2023-01-01T03:38:30.825Z,3.77
2023-01-01T03:41:04.942Z,3.67
2023-01-01T03:43:31.970Z,4.30
2023-01-01T03:46:00.924Z,3.50
2023-01-01T03:48:49.975Z,3.50
2023-01-01T03:51:42.282Z,3.42
2023-01-01T03:54:20.561Z,3.73
2023-01-01T03:57:01.905Z,3.80
2023-01-01T03:59:36.673Z,3.40
2023-01-01T04:02:07.695Z,4.32
2023-01-01T04:04:35.576Z,4.07
2023-01-01T04:07:14.904Z,3.22
2023-01-01T04:09:48.942Z,3.93
2023-01-01T04:12:18.156Z,3.92
2023-01-01T04:14:45.304Z,3.47
2023-01-01T04:17:13.797Z,4.10
2023-01-01T04:19:40.806Z,3.80
2023-01-01T04:22:08.758Z,3.80
2023-01-01T04:24:35.689Z,4.17
2023-01-01T04:27:02.882Z,4.03
2023-01-01T04:29:29.891Z,4.22
2023-01-01T04:31:58.290Z,3.83
2023-01-01T04:34:25.202Z,4.07
2023-01-01T04:36:52.317Z,3.83
2023-01-01T04:39:19.424Z,3.30
2023-01-01T04:41:48.001Z,3.87
2023-01-01T04:44:14.970Z,3.63
2023-01-01T04:46:42.638Z,3.27
2023-01-01T04:49:09.602Z,3.60
2023-01-01T04:51:37.351Z,3.90
2023-01-01T04:54:04.735Z,3.47
2023-01-01T04:56:31.806Z,3.93
2023-01-01T04:58:58.730Z,3.70
2023-01-01T05:01:29.035Z,3.53
2023-01-01T05:03:58.113Z,3.20
2023-01-01T05:06:25.882Z,3.70
2023-01-01T05:08:57.106Z,3.30
2023-01-01T05:11:26.800Z,3.95
2023-01-01T05:13:55.408Z,3.23
2023-01-01T05:16:25.345Z,3.83
2023-01-01T05:18:52.953Z,3.47
2023-01-01T05:21:28.668Z,3.50
2023-01-01T05:24:03.750Z,3.10
2023-01-01T05:26:36.168Z,3.57
2023-01-01T05:29:04.012Z,3.40
2023-01-01T05:31:34.375Z,3.20
2023-01-01T05:36:31.056Z,3.50
2023-01-01T05:38:58.738Z,3.30
2023-01-01T05:41:26.347Z,3.40
2023-01-01T05:43:53.667Z,3.43
2023-01-01T05:46:23.530Z,3.53
2023-01-01T05:48:52.611Z,3.20
2023-01-01T05:51:22.058Z,3.20
2023-01-01T05:53:50.656Z,4.00
2023-01-01T05:56:18.650Z,3.33
2023-01-01T05:58:47.432Z,3.67
2023-01-01T06:01:20.504Z,3.63
2023-01-01T06:03:49.060Z,3.27
2023-01-01T06:06:21.586Z,3.17
2023-01-01T06:08:59.884Z,3.47
2023-01-01T06:11:27.744Z,3.47
2023-01-01T06:13:56.416Z,3.73
2023-01-01T06:16:24.600Z,3.20
2023-01-01T06:18:51.607Z,3.70
2023-01-01T06:21:21.244Z,3.87
2023-01-01T06:23:48.572Z,3.40
2023-01-01T06:26:18.200Z,3.78
2023-01-01T06:28:47.170Z,3.40
2023-01-01T06:31:16.522Z,3.40
2023-01-01T06:33:44.307Z,2.77
2023-01-01T06:36:13.572Z,3.10
2023-01-01T06:38:44.552Z,3.33
2023-01-01T06:41:14.818Z,3.30
2023-01-01T06:43:42.092Z,3.40
2023-01-01T06:46:19.286Z,3.23
2023-01-01T06:48:47.900Z,4.00
2023-01-01T06:51:17.203Z,2.70
2023-01-01T06:53:44.172Z,2.83
2023-01-01T06:56:11.605Z,3.43
2023-01-01T06:58:39.072Z,3.10
2023-01-01T07:01:13.086Z,3.20
2023-01-01T07:03:41.125Z,3.23
2023-01-01T07:06:09.053Z,4.23
2023-01-01T07:08:36.257Z,3.43
2023-01-01T07:11:03.972Z,3.80
2023-01-01T07:13:31.477Z,3.17
2023-01-01T07:15:58.663Z,3.10
2023-01-01T07:18:26.313Z,3.27
2023-01-01T07:20:58.487Z,3.13
2023-01-01T07:23:26.671Z,3.43
2023-01-01T07:25:54.629Z,3.80
2023-01-01T07:28:22.890Z,2.80
2023-01-01T07:30:50.244Z,3.47
2023-01-01T07:33:19.362Z,4.40
2023-01-01T07:35:46.443Z,4.13
2023-01-01T07:38:14.040Z,3.90
2023-01-01T07:40:41.605Z,3.45
2023-01-01T07:43:09.090Z,3.20
2023-01-01T07:45:36.329Z,3.20
2023-01-01T07:48:03.467Z,3.63
2023-01-01T07:50:32.488Z,3.33
2023-01-01T07:52:59.581Z,3.93
2023-01-01T07:55:27.399Z,3.42
2023-01-01T07:57:54.375Z,3.42
2023-01-01T08:00:22.087Z,4.30
2023-01-01T08:02:49.562Z,3.42
2023-01-01T08:05:19.939Z,5.25
2023-01-01T08:07:49.850Z,3.55
2023-01-01T08:10:20.328Z,3.45
2023-01-01T08:12:47.874Z,3.47
2023-01-01T08:15:15.771Z,3.80
2023-01-01T08:17:46.917Z,3.10
2023-01-01T08:20:14.891Z,3.28
2023-01-01T08:22:41.898Z,3.58
2023-01-01T08:25:09.401Z,4.20
2023-01-01T08:27:38.185Z,4.30
2023-01-01T08:30:05.758Z,4.38
2023-01-01T08:32:32.650Z,4.05
2023-01-01T08:34:59.763Z,4.03
2023-01-01T08:37:26.639Z,4.00
2023-01-01T08:39:54.762Z,4.10
2023-01-01T08:42:21.853Z,3.67
2023-01-01T08:58:07.684Z,3.83
2023-01-01T09:00:34.540Z,3.95
2023-01-01T09:03:01.500Z,3.50
2023-01-01T09:05:28.404Z,4.15
2023-01-01T09:07:55.189Z,3.28
2023-01-01T09:10:21.973Z,3.70
2023-01-01T09:12:48.750Z,4.07
2023-01-01T09:15:17.082Z,2.83
2023-01-01T09:17:44.025Z,3.30
2023-01-01T09:20:11.039Z,3.30
2023-01-01T09:22:37.889Z,3.20
2023-01-01T09:25:05.033Z,3.28
2023-01-01T09:27:31.856Z,3.20
2023-01-01T09:29:58.743Z,3.08
2023-01-01T09:32:25.752Z,3.15
2023-01-01T09:34:52.795Z,2.92
2023-01-01T09:37:19.754Z,3.13
2023-01-01T09:39:46.880Z,3.60
2023-01-01T09:42:37.969Z,3.40
2023-01-01T09:45:21.266Z,3.90
2023-01-01T09:47:54.394Z,3.78
2023-01-01T09:50:29.735Z,3.45
2023-01-01T09:53:04.719Z,3.38
2023-01-01T09:55:55.433Z,3.35
2023-01-01T09:58:26.379Z,3.53
2023-01-01T10:00:56.375Z,3.20
2023-01-01T10:03:39.464Z,3.25
2023-01-01T10:06:30.340Z,3.28
2023-01-01T10:09:18.055Z,3.08
2023-01-01T10:11:56.370Z,2.88
2023-01-01T10:14:26.195Z,3.40
2023-01-01T10:16:56.075Z,3.28
2023-01-01T10:19:43.479Z,4.15
2023-01-01T10:22:22.992Z,3.50
2023-01-01T10:25:04.363Z,3.72
2023-01-01T10:28:06.410Z,3.08
2023-01-01T10:30:33.353Z,3.22
2023-01-01T10:33:00.461Z,3.17
2023-01-01T10:35:56.163Z,3.28
2023-01-01T10:38:25.556Z,3.85
2023-01-01T10:41:02.854Z,3.67
2023-01-01T10:43:29.732Z,3.88
2023-01-01T10:45:57.136Z,3.80
2023-01-01T10:48:26.554Z,3.70
2023-01-01T10:51:02.052Z,4.35
2023-01-01T10:53:36.132Z,3.75
2023-01-01T10:56:17.930Z,3.15
2023-01-01T10:58:44.790Z,3.53
2023-01-01T11:01:34.431Z,3.42
2023-01-01T11:04:19.510Z,3.40
2023-01-01T11:06:47.692Z,4.25
2023-01-01T11:09:27.388Z,3.55
2023-01-01T11:12:15.350Z,3.20
2023-01-01T11:14:56.644Z,4.07
2023-01-01T11:17:30.144Z,3.65
2023-01-01T11:20:01.986Z,3.10
2023-01-01T11:22:41.870Z,3.22
2023-01-01T11:25:22.518Z,4.57
2023-01-01T11:27:50.488Z,3.75
2023-01-01T11:30:27.834Z,3.80
2023-01-01T11:33:03.148Z,3.30
2023-01-01T11:35:33.537Z,3.22
2023-01-01T11:38:00.474Z,2.90
2023-01-01T11:40:38.161Z,3.60
2023-01-01T11:43:07.329Z,4.13
2023-01-01T11:45:38.563Z,3.03
2023-01-01T11:48:24.063Z,3.35
2023-01-01T11:50:57.508Z,3.08
2023-01-01T11:53:27.020Z,4.15
2023-01-01T11:56:13.819Z,3.22
2023-01-01T11:58:57.923Z,3.67
2023-01-01T12:01:47.126Z,2.75
2023-01-01T12:04:13.997Z,3.47
2023-01-01T12:07:06.442Z,3.30
2023-01-01T12:09:42.812Z,3.22
2023-01-01T12:12:27.613Z,3.47
2023-01-01T12:15:14.318Z,4.43
2023-01-01T12:17:49.994Z,3.50
2023-01-01T12:20:22.791Z,3.42
2023-01-01T12:22:49.859Z,3.72
2023-01-01T12:25:19.623Z,4.47
2023-01-01T12:28:28.645Z,3.60
2023-01-01T12:31:22.999Z,3.30
2023-01-01T12:34:05.677Z,4.10
2023-01-01T12:36:53.942Z,3.95
2023-01-01T12:39:35.995Z,3.67
2023-01-01T12:42:36.109Z,3.42
2023-01-01T12:45:46.252Z,3.80
2023-01-01T12:48:36.623Z,4.13
2023-01-01T12:51:38.359Z,3.55
2023-01-01T12:54:35.574Z,3.58
2023-01-01T12:57:31.237Z,3.60
2023-01-01T13:00:01.983Z,3.22
2023-01-01T13:02:33.490Z,3.80
2023-01-01T13:05:13.610Z,3.40
2023-01-01T13:07:43.633Z,5.05
2023-01-01T13:10:34.393Z,3.45
2023-01-01T13:13:02.704Z,5.18
2023-01-01T13:15:48.648Z,4.13
2023-01-01T13:18:15.579Z,3.85
2023-01-01T13:20:54.227Z,4.15
2023-01-01T13:23:43.193Z,3.95
2023-01-01T13:26:21.654Z,4.00
2023-01-01T13:28:57.406Z,4.93
2023-01-01T13:31:39.815Z,3.40
2023-01-01T13:34:31.553Z,4.13
2023-01-01T13:37:10.848Z,3.92
2023-01-01T13:40:06.752Z,4.13
2023-01-01T13:43:02.340Z,4.18
2023-01-01T13:49:01.707Z,4.05
2023-01-01T13:52:08.504Z,4.88
2023-01-01T13:55:20.461Z,3.83
2023-01-01T13:58:02.276Z,4.22
2023-01-01T14:01:01.330Z,4.53
2023-01-01T14:03:29.172Z,4.05
2023-01-01T14:05:59.801Z,5.55
2023-01-01T14:08:35.248Z,4.22
2023-01-01T14:11:03.321Z,4.75
2023-01-01T14:13:39.439Z,4.68
2023-01-01T14:16:10.983Z,4.50
2023-01-01T14:18:47.606Z,4.68
2023-01-01T14:21:23.428Z,4.95
2023-01-01T14:23:59.539Z,5.30
2023-01-01T14:26:28.316Z,4.40
2023-01-01T14:29:07.775Z,4.60
2023-01-01T14:31:40.341Z,4.90
2023-01-01T14:34:30.141Z,4.78
2023-01-01T14:37:02.494Z,4.72
2023-01-01T14:39:34.399Z,5.28
2023-01-01T14:42:13.604Z,5.25
2023-01-01T14:44:43.481Z,5.50
2023-01-01T14:47:27.802Z,5.93
2023-01-01T14:50:00.910Z,4.43
2023-01-01T14:52:31.283Z,5.15
2023-01-01T14:55:00.535Z,5.00
2023-01-01T14:57:30.980Z,4.85
2023-01-01T14:59:58.109Z,4.82
2023-01-01T15:02:29.224Z,5.05
2023-01-01T15:04:57.978Z,4.97
2023-01-01T15:07:30.441Z,4.85
2023-01-01T15:10:02.358Z,5.07
2023-01-01T15:12:30.844Z,4.50
2023-01-01T15:14:58.252Z,5.18
2023-01-01T15:17:26.194Z,4.70
2023-01-01T15:20:17.341Z,4.78
2023-01-01T15:22:44.597Z,4.78
2023-01-01T15:25:16.187Z,4.47
2023-01-01T15:27:44.486Z,4.50
2023-01-01T15:30:30.612Z,4.72
2023-01-01T15:33:09.237Z,4.05
2023-01-01T15:35:38.138Z,4.30
2023-01-01T15:38:15.909Z,4.50
2023-01-01T15:40:49.435Z,4.47
2023-01-01T15:43:29.633Z,4.20
2023-01-01T15:45:58.820Z,4.70
2023-01-01T15:48:31.734Z,5.13
2023-01-01T15:51:14.072Z,4.70
2023-01-01T15:54:04.882Z,5.28
2023-01-01T15:56:34.021Z,5.20
2023-01-01T15:59:09.201Z,6.05
2023-01-01T16:01:40.494Z,4.93
2023-01-01T16:04:11.395Z,5.10
2023-01-01T16:06:46.727Z,5.45
2023-01-01T16:09:15.010Z,5.20
2023-01-01T16:11:42.475Z,5.68
2023-01-01T16:14:09.508Z,5.90
2023-01-01T16:16:38.963Z,6.43
2023-01-01T16:19:06.305Z,6.22
2023-01-01T16:21:33.841Z,6.13
2023-01-01T16:24:01.026Z,5.57
2023-01-01T16:26:27.944Z,6.22
2023-01-01T16:28:54.751Z,5.90
2023-01-01T16:31:28.846Z,7.10
2023-01-01T16:33:57.706Z,6.90
2023-01-01T16:36:27.455Z,6.20
2023-01-01T16:38:54.525Z,6.50
2023-01-01T16:41:21.611Z,6.82
2023-01-01T16:43:48.703Z,6.60
2023-01-01T16:46:15.647Z,6.63
2023-01-01T16:48:43.010Z,6.60
2023-01-01T16:51:25.689Z,7.20
2023-01-01T16:53:52.530Z,7.28
2023-01-01T16:56:19.359Z,6.60
2023-01-01T16:58:50.038Z,6.38
2023-01-01T17:01:17.555Z,6.47
2023-01-01T17:03:44.535Z,6.23
2023-01-01T17:06:11.809Z,6.82
2023-01-01T17:08:39.622Z,6.53
2023-01-01T17:11:10.905Z,7.17
2023-01-01T17:13:37.715Z,7.65
2023-01-01T17:16:08.955Z,7.70
2023-01-01T17:21:23.385Z,7.95
2023-01-01T17:23:50.394Z,8.10
2023-01-01T17:26:22.774Z,7.20
2023-01-01T17:28:58.034Z,13.40
2023-01-01T17:31:28.635Z,10.57
2023-01-01T17:33:55.792Z,27.37
2023-01-01T17:36:22.742Z,28.17
2023-01-01T17:38:49.644Z,21.27
2023-01-01T17:41:17.777Z,18.60
2023-01-01T17:43:47.496Z,11.20
2023-01-01T17:46:21.073Z,9.17
2023-01-01T17:48:48.667Z,9.10
2023-01-01T17:51:17.216Z,10.50
2023-01-01T17:53:44.210Z,9.87
2023-01-01T17:56:13.609Z,9.45
2023-01-01T17:58:41.597Z,15.48
2023-01-01T18:01:11.380Z,17.50
2023-01-01T18:03:40.276Z,15.85
2023-01-01T18:06:07.969Z,16.92
2023-01-01T18:08:34.797Z,15.82
2023-01-01T18:11:01.667Z,14.70
2023-01-01T18:13:28.588Z,24.17
2023-01-01T18:16:00.389Z,21.95
2023-01-01T18:18:28.208Z,10.20
2023-01-01T18:21:05.013Z,8.23
2023-01-01T18:23:33.470Z,9.00
2023-01-01T18:26:02.298Z,18.47
2023-01-01T18:28:29.713Z,18.90
2023-01-01T18:31:03.733Z,20.42
2023-01-01T18:33:30.701Z,12.25
2023-01-01T18:35:57.845Z,11.20
2023-01-01T18:38:25.789Z,17.50
2023-01-01T18:41:02.805Z,11.80
2023-01-01T18:43:29.611Z,14.17
2023-01-01T18:45:57.297Z,12.23
2023-01-01T18:48:24.178Z,10.80
2023-01-01T18:50:50.967Z,10.43
2023-01-01T18:53:22.256Z,10.90
2023-01-01T18:56:12.310Z,10.47
2023-01-01T18:58:41.751Z,9.85
2023-01-01T19:01:21.425Z,10.77
2023-01-01T19:03:55.667Z,8.50
2023-01-01T19:06:32.834Z,9.23
2023-01-01T19:09:08.403Z,9.23
2023-01-01T19:11:38.166Z,9.40
2023-01-01T19:14:18.256Z,9.90
2023-01-01T19:16:46.693Z,8.93
2023-01-01T19:19:24.424Z,9.20
2023-01-01T19:21:55.456Z,9.70
2023-01-01T19:24:27.451Z,9.13
2023-01-01T19:27:02.692Z,9.23
2023-01-01T19:29:31.003Z,8.33
2023-01-01T19:31:58.623Z,9.40
2023-01-01T19:34:26.402Z,11.47
2023-01-01T19:36:53.709Z,15.83
2023-01-01T19:39:20.519Z,14.70
2023-01-01T19:41:47.751Z,12.07
2023-01-01T19:44:18.527Z,10.63
2023-01-01T19:46:48.649Z,9.60
2023-01-01T19:49:16.656Z,10.33
2023-01-01T19:51:44.019Z,10.02
2023-01-01T19:54:10.919Z,9.33
2023-01-01T19:56:37.778Z,9.35
2023-01-01T19:59:04.633Z,9.33
2023-01-01T20:01:31.523Z,10.00
2023-01-01T20:03:58.893Z,10.03
2023-01-01T20:06:26.894Z,10.40
2023-01-01T20:08:54.994Z,9.57
2023-01-01T20:11:22.615Z,9.07
2023-01-01T20:13:50.779Z,9.77
2023-01-01T20:16:17.841Z,9.57
2023-01-01T20:18:45.848Z,11.10
2023-01-01T20:21:38.873Z,11.17
2023-01-01T20:24:06.259Z,16.10
2023-01-01T20:26:35.324Z,14.07
2023-01-01T20:29:21.674Z,14.03
2023-01-01T20:31:51.311Z,10.00
2023-01-01T20:34:30.324Z,8.97
2023-01-01T20:37:15.865Z,11.67
2023-01-01T20:39:43.957Z,11.40
2023-01-01T20:42:11.019Z,11.20
2023-01-01T20:44:37.891Z,8.90
2023-01-01T20:47:05.095Z,9.60
2023-01-01T20:49:32.255Z,9.47
2023-01-01T20:51:59.377Z,9.50
2023-01-01T20:54:32.134Z,8.50
2023-01-01T20:56:59.323Z,9.30
2023-01-01T20:59:41.714Z,9.10
2023-01-01T21:02:11.907Z,8.43
2023-01-01T21:04:41.257Z,8.93
2023-01-01T21:07:12.217Z,8.60
2023-01-01T21:09:42.234Z,9.63
2023-01-01T21:12:09.705Z,9.77
2023-01-01T21:14:38.761Z,9.03
2023-01-01T21:17:23.457Z,8.17
2023-01-01T21:19:53.811Z,8.43
2023-01-01T21:22:20.838Z,8.23
2023-01-01T21:24:54.517Z,8.10
2023-01-01T21:27:34.107Z,7.97
2023-01-01T21:30:01.693Z,8.43
2023-01-01T21:32:40.851Z,8.00
2023-01-01T21:35:18.365Z,8.33
2023-01-01T21:37:48.304Z,7.80
2023-01-01T21:40:37.955Z,8.00
2023-01-01T21:43:25.723Z,9.67
2023-01-01T21:45:56.698Z,8.03
2023-01-01T21:48:33.727Z,7.37
2023-01-01T21:51:01.927Z,7.70
2023-01-01T21:53:36.429Z,8.50
2023-01-01T21:56:23.042Z,7.70
2023-01-01T21:59:08.489Z,8.33
2023-01-01T22:01:44.573Z,8.63
2023-01-01T22:04:11.801Z,7.90
2023-01-01T22:06:52.162Z,8.77
2023-01-01T22:09:43.503Z,7.83
2023-01-01T22:12:13.307Z,8.07
2023-01-01T22:14:45.220Z,9.07
2023-01-01T22:17:36.788Z,8.87
2023-01-01T22:20:19.705Z,7.77
2023-01-01T22:22:46.880Z,7.83
2023-01-01T22:25:29.508Z,8.63
2023-01-01T22:27:57.155Z,7.33
2023-01-01T22:30:43.056Z,8.87
2023-01-01T22:33:38.169Z,8.03
2023-01-01T22:36:33.866Z,9.00
2023-01-01T22:39:03.223Z,9.43
2023-01-01T22:41:31.285Z,9.67
2023-01-01T22:44:03.390Z,8.67
2023-01-01T22:46:36.222Z,8.47
2023-01-01T22:49:30.390Z,8.93
2023-01-01T22:51:58.517Z,9.20
2023-01-01T22:54:25.479Z,8.87
2023-01-01T22:56:52.361Z,7.87
2023-01-01T22:59:19.485Z,9.27
2023-01-01T23:01:48.480Z,8.27
2023-01-01T23:04:16.261Z,8.77
2023-01-01T23:06:43.435Z,8.77
2023-01-01T23:09:12.106Z,7.67
2023-01-01T23:11:39.669Z,8.57
2023-01-01T23:14:25.269Z,8.30
2023-01-01T23:16:52.197Z,8.23
2023-01-01T23:19:19.117Z,8.23
2023-01-01T23:21:46.689Z,8.13
2023-01-01T23:24:20.308Z,8.13
2023-01-01T23:26:48.573Z,8.73
2023-01-01T23:29:19.606Z,8.00
2023-01-01T23:31:47.806Z,8.33
2023-01-01T23:34:17.102Z,9.10
2023-01-01T23:36:44.949Z,9.63
2023-01-01T23:39:12.029Z,8.77
2023-01-01T23:41:39.982Z,8.67
2023-01-01T23:44:09.074Z,8.60
2023-01-01T23:46:39.272Z,9.10
2023-01-01T23:49:07.046Z,8.60
2023-01-01T23:51:34.555Z,8.67
2023-01-01T23:54:02.548Z,9.53
2023-01-01T23:56:29.405Z,8.10
2023-01-01T23:58:56.620Z,8.27
